Time;durP1;ratioP1;P1;durP2;ratioP2;P2;SDS_P1;SDS_P2;PMS_P1;PMS_P2;Temp;Humidity;BMP_temperature;BMP_pressure;BME280_temperature;BME280_humidity;BME280_pressure;Samples;Min_cycle;Max_cycle;Signal;HPM_P1;HPM_P2
2024/02/06 00:00:07;;;;;;;3.05;2.10;;;;;;;;;;5034427;28;20072;-68
2024/02/06 00:02:33;;;;;;;1.80;1.70;;;;;;;;;;5046161;28;20112;-69
2024/02/06 00:05:00;;;;;;;1.77;1.67;;;;;;;;;;5034905;28;20017;-68
2024/02/06 00:07:26;;;;;;;2.08;1.90;;;;;;;;;;5054827;28;20382;-69
2024/02/06 00:09:52;;;;;;;2.38;2.17;;;;;;;;;;5025065;28;20032;-68
2024/02/06 00:12:19;;;;;;;2.42;1.70;;;;;;;;;;5047694;28;20029;-68
2024/02/06 00:14:45;;;;;;;1.80;1.70;;;;;;;;;;5043659;28;20033;-68
2024/02/06 00:17:11;;;;;;;2.83;1.63;;;;;;;;;;5047082;28;20059;-68
2024/02/06 00:19:38;;;;;;;1.55;1.45;;;;;;;;;;5045041;28;20477;-67
2024/02/06 00:22:04;;;;;;;1.55;1.45;;;;;;;;;;5042816;28;20032;-70
2024/02/06 00:24:30;;;;;;;2.55;1.50;;;;;;;;;;5028786;28;20144;-69
2024/02/06 00:26:56;;;;;;;1.65;1.52;;;;;;;;;;5042745;28;20400;-69
2024/02/06 00:29:24;;;;;;;1.92;1.58;;;;;;;;;;5033475;28;20442;-67
2024/02/06 00:31:50;;;;;;;1.80;1.70;;;;;;;;;;5029609;28;20120;-68
2024/02/06 00:34:18;;;;;;;1.45;1.40;;;;;;;;;;5034887;28;20021;-68
2024/02/06 00:36:45;;;;;;;2.50;1.50;;;;;;;;;;5024251;28;20036;-68
2024/02/06 00:39:11;;;;;;;1.50;1.42;;;;;;;;;;5039243;28;20303;-68
2024/02/06 00:41:38;;;;;;;1.73;1.60;;;;;;;;;;5024746;28;20112;-67
2024/02/06 00:44:04;;;;;;;1.60;1.30;;;;;;;;;;5031155;28;20033;-67
2024/02/06 00:46:30;;;;;;;1.60;1.50;;;;;;;;;;5039363;28;20057;-70
2024/02/06 00:48:56;;;;;;;1.50;1.40;;;;;;;;;;5061240;28;20016;-68
2024/02/06 00:51:23;;;;;;;1.23;1.20;;;;;;;;;;5030402;28;20068;-70
2024/02/06 00:53:50;;;;;;;2.80;1.63;;;;;;;;;;5023227;28;20297;-69
2024/02/06 00:56:16;;;;;;;1.40;1.30;;;;;;;;;;5038595;28;20025;-69
2024/02/06 00:58:43;;;;;;;3.72;1.63;;;;;;;;;;5034869;28;20112;-70
2024/02/06 01:01:09;;;;;;;1.50;1.40;;;;;;;;;;5045675;28;20495;-69
2024/02/06 01:03:35;;;;;;;1.70;1.60;;;;;;;;;;5036257;28;20033;-69
2024/02/06 01:06:01;;;;;;;1.58;1.48;;;;;;;;;;5037217;28;20033;-69
2024/02/06 01:08:28;;;;;;;1.70;1.60;;;;;;;;;;5047161;28;20527;-69
2024/02/06 01:10:54;;;;;;;2.08;1.20;;;;;;;;;;5033902;28;20032;-71
2024/02/06 01:13:20;;;;;;;1.45;1.35;;;;;;;;;;5034345;28;20129;-69
2024/02/06 01:15:46;;;;;;;1.30;1.30;;;;;;;;;;5046435;28;20532;-70
2024/02/06 01:18:12;;;;;;;1.73;1.50;;;;;;;;;;5039762;28;20096;-70
2024/02/06 01:20:39;;;;;;;1.45;1.35;;;;;;;;;;5041251;28;20305;-70
2024/02/06 01:23:05;;;;;;;2.00;1.80;;;;;;;;;;5046353;28;20032;-69
2024/02/06 01:25:31;;;;;;;1.55;1.45;;;;;;;;;;5050322;28;20037;-70
2024/02/06 01:27:58;;;;;;;1.42;1.33;;;;;;;;;;5036640;28;20033;-69
2024/02/06 01:30:24;;;;;;;1.55;1.45;;;;;;;;;;5021577;28;20642;-70
2024/02/06 01:32:50;;;;;;;1.48;1.40;;;;;;;;;;5045651;28;20032;-69
2024/02/06 01:35:18;;;;;;;3.33;1.40;;;;;;;;;;5042395;28;20025;-69
2024/02/06 01:37:44;;;;;;;1.40;1.30;;;;;;;;;;5046313;28;20028;-71
2024/02/06 01:40:11;;;;;;;1.10;1.10;;;;;;;;;;5009078;28;20036;-69
2024/02/06 01:42:37;;;;;;;4.25;1.55;;;;;;;;;;5049241;28;20112;-69
2024/02/06 01:45:04;;;;;;;2.70;1.42;;;;;;;;;;5037280;28;20029;-70
2024/02/06 01:47:30;;;;;;;1.90;1.35;;;;;;;;;;5027690;28;20469;-69
2024/02/06 01:49:57;;;;;;;1.50;1.40;;;;;;;;;;5042691;28;20040;-69
2024/02/06 01:52:23;;;;;;;1.50;1.40;;;;;;;;;;5029136;28;20048;-69
2024/02/06 01:54:49;;;;;;;1.20;1.20;;;;;;;;;;5041526;28;20033;-71
2024/02/06 01:57:16;;;;;;;1.40;1.30;;;;;;;;;;5025075;28;20037;-69
2024/02/06 01:59:42;;;;;;;3.25;1.40;;;;;;;;;;5040911;28;20029;-69
2024/02/06 02:02:08;;;;;;;1.15;1.13;;;;;;;;;;5045737;28;20029;-70
2024/02/06 02:04:34;;;;;;;1.17;1.17;;;;;;;;;;5023808;28;20592;-70
2024/02/06 02:07:01;;;;;;;2.55;1.85;;;;;;;;;;5044643;28;20045;-70
2024/02/06 02:09:27;;;;;;;1.50;1.40;;;;;;;;;;5043874;28;20036;-70
2024/02/06 02:11:54;;;;;;;1.58;1.48;;;;;;;;;;5030145;28;20095;-72
2024/02/06 02:14:21;;;;;;;5.07;1.73;;;;;;;;;;5047275;28;20102;-69
2024/02/06 02:16:47;;;;;;;1.20;1.20;;;;;;;;;;5032259;28;20021;-70
2024/02/06 02:19:14;;;;;;;2.85;1.55;;;;;;;;;;5049933;28;20032;-64
2024/02/06 02:21:40;;;;;;;1.10;1.10;;;;;;;;;;5031280;28;20057;-64
2024/02/06 02:24:07;;;;;;;1.48;1.17;;;;;;;;;;5047845;28;20024;-64
2024/02/06 02:26:34;;;;;;;1.70;1.60;;;;;;;;;;5047102;28;20151;-64
2024/02/06 02:29:00;;;;;;;1.40;1.30;;;;;;;;;;5047910;28;20033;-65
2024/02/06 02:31:27;;;;;;;1.65;1.42;;;;;;;;;;5036466;28;20140;-64
2024/02/06 02:33:54;;;;;;;1.42;1.35;;;;;;;;;;5035066;28;20423;-64
2024/02/06 02:36:20;;;;;;;1.92;1.80;;;;;;;;;;5030469;28;20189;-63
2024/02/06 02:38:46;;;;;;;2.35;1.67;;;;;;;;;;5035542;28;20040;-64
2024/02/06 02:41:13;;;;;;;3.03;1.58;;;;;;;;;;5046050;28;20031;-64
2024/02/06 02:43:39;;;;;;;6.40;1.80;;;;;;;;;;5029911;28;20112;-64
2024/02/06 02:46:05;;;;;;;4.68;1.80;;;;;;;;;;5024770;28;20814;-70
2024/02/06 02:48:32;;;;;;;2.35;2.03;;;;;;;;;;5041060;28;20034;-71
2024/02/06 02:50:58;;;;;;;6.93;2.13;;;;;;;;;;5028153;28;20518;-69
2024/02/06 02:53:25;;;;;;;4.93;2.15;;;;;;;;;;5037309;28;20021;-70
2024/02/06 02:55:51;;;;;;;6.03;2.28;;;;;;;;;;5016676;28;20365;-69
2024/02/06 02:58:17;;;;;;;3.95;2.00;;;;;;;;;;5024478;28;20049;-68
2024/02/06 03:00:44;;;;;;;9.32;2.60;;;;;;;;;;5033671;28;20022;-70
2024/02/06 03:03:10;;;;;;;7.57;2.67;;;;;;;;;;5040130;28;20064;-69
2024/02/06 03:05:37;;;;;;;9.82;3.22;;;;;;;;;;5048127;28;20040;-70
2024/02/06 03:08:04;;;;;;;9.13;2.65;;;;;;;;;;5043458;28;20120;-68
2024/02/06 03:10:32;;;;;;;9.05;2.88;;;;;;;;;;5032893;28;20040;-70
2024/02/06 03:12:58;;;;;;;9.52;3.17;;;;;;;;;;5040881;28;20631;-69
2024/02/06 03:15:25;;;;;;;9.50;2.55;;;;;;;;;;5023827;28;20032;-69
2024/02/06 03:17:54;;;;;;;11.88;3.10;;;;;;;;;;5041112;28;20021;-70
2024/02/06 03:20:20;;;;;;;12.63;2.95;;;;;;;;;;5043539;28;20021;-69
2024/02/06 03:22:48;;;;;;;5.13;2.53;;;;;;;;;;5052466;28;20024;-70
2024/02/06 03:25:14;;;;;;;7.10;2.42;;;;;;;;;;5027046;28;20393;-69
2024/02/06 03:27:43;;;;;;;8.32;3.58;;;;;;;;;;5044576;28;20028;-69
2024/02/06 03:30:10;;;;;;;16.95;3.75;;;;;;;;;;5023424;28;20123;-69
2024/02/06 03:32:36;;;;;;;9.55;3.30;;;;;;;;;;5015756;28;20079;-69
2024/02/06 03:35:02;;;;;;;6.60;2.80;;;;;;;;;;5039284;28;20045;-69
2024/02/06 03:37:28;;;;;;;7.40;2.85;;;;;;;;;;5030064;28;20036;-68
2024/02/06 03:39:54;;;;;;;4.25;2.92;;;;;;;;;;5041229;28;20025;-71
2024/02/06 03:42:20;;;;;;;10.23;2.70;;;;;;;;;;5031728;28;20027;-69
2024/02/06 03:44:46;;;;;;;13.55;2.83;;;;;;;;;;5024960;28;20411;-69
2024/02/06 03:47:13;;;;;;;8.95;3.80;;;;;;;;;;5031340;28;20033;-69
2024/02/06 03:49:39;;;;;;;8.48;2.45;;;;;;;;;;5030154;28;20275;-68
2024/02/06 03:52:06;;;;;;;11.52;3.70;;;;;;;;;;5039034;28;20017;-69
2024/02/06 03:54:32;;;;;;;9.88;2.47;;;;;;;;;;5042556;28;20044;-69
2024/02/06 03:56:58;;;;;;;7.22;2.33;;;;;;;;;;5023723;28;20094;-69
2024/02/06 03:59:24;;;;;;;10.00;2.65;;;;;;;;;;5029943;28;20507;-69
2024/02/06 04:01:51;;;;;;;6.13;2.60;;;;;;;;;;5028851;28;20641;-69
2024/02/06 04:04:17;;;;;;;10.13;2.85;;;;;;;;;;5039497;28;20025;-69
2024/02/06 04:06:43;;;;;;;7.72;2.10;;;;;;;;;;5050525;28;20035;-71
2024/02/06 04:09:10;;;;;;;6.20;2.50;;;;;;;;;;5044329;28;20040;-69
2024/02/06 04:11:36;;;;;;;10.02;3.65;;;;;;;;;;5038559;28;20112;-69
2024/02/06 04:14:02;;;;;;;11.45;2.67;;;;;;;;;;5022539;28;20034;-70
2024/02/06 04:16:28;;;;;;;14.52;2.85;;;;;;;;;;5037227;28;20388;-68
2024/02/06 04:18:55;;;;;;;10.40;3.13;;;;;;;;;;5032850;28;20025;-69
2024/02/06 04:21:24;;;;;;;8.15;3.50;;;;;;;;;;5037282;28;20087;-69
2024/02/06 04:23:50;;;;;;;7.40;3.08;;;;;;;;;;5029766;28;20105;-70
2024/02/06 04:26:19;;;;;;;9.43;3.05;;;;;;;;;;5026310;28;20056;-69
2024/02/06 04:28:45;;;;;;;4.72;2.70;;;;;;;;;;5035166;28;20033;-70
2024/02/06 04:31:12;;;;;;;7.60;3.60;;;;;;;;;;5052623;28;20076;-69
2024/02/06 04:33:39;;;;;;;7.68;2.42;;;;;;;;;;5036464;28;20025;-71
2024/02/06 04:36:05;;;;;;;7.10;2.75;;;;;;;;;;5022419;28;20025;-70
2024/02/06 04:38:32;;;;;;;7.45;2.40;;;;;;;;;;5039898;28;20053;-71
2024/02/06 04:40:58;;;;;;;10.95;3.58;;;;;;;;;;5037608;28;20038;-70
2024/02/06 04:43:25;;;;;;;7.80;2.72;;;;;;;;;;5026624;28;20965;-70
2024/02/06 04:45:52;;;;;;;9.43;4.47;;;;;;;;;;5042940;28;20422;-71
2024/02/06 04:48:18;;;;;;;9.95;3.55;;;;;;;;;;5043352;28;20456;-71
2024/02/06 04:50:45;;;;;;;9.68;3.25;;;;;;;;;;5026786;28;20032;-69
2024/02/06 04:53:11;;;;;;;11.48;2.50;;;;;;;;;;5044823;28;20083;-71
2024/02/06 04:55:37;;;;;;;4.45;2.40;;;;;;;;;;5046633;28;20388;-70
2024/02/06 04:58:04;;;;;;;8.38;2.92;;;;;;;;;;5043696;28;20113;-70
2024/02/06 05:00:30;;;;;;;12.57;2.88;;;;;;;;;;5028395;28;20034;-70
2024/02/06 05:02:56;;;;;;;5.30;3.92;;;;;;;;;;5032554;28;20021;-71
2024/02/06 05:05:22;;;;;;;13.38;3.38;;;;;;;;;;5052116;28;20025;-70
2024/02/06 05:07:49;;;;;;;5.38;2.97;;;;;;;;;;5053588;28;20504;-71
2024/02/06 05:10:15;;;;;;;5.10;2.33;;;;;;;;;;5036334;28;20025;-71
2024/02/06 05:12:42;;;;;;;7.63;2.58;;;;;;;;;;5029603;28;20404;-70
2024/02/06 05:15:09;;;;;;;10.43;2.85;;;;;;;;;;5048190;28;20025;-70
2024/02/06 05:17:35;;;;;;;3.80;3.20;;;;;;;;;;5041739;28;20030;-64
2024/02/06 05:20:04;;;;;;;12.13;3.05;;;;;;;;;;5018221;28;20029;-64
2024/02/06 05:22:31;;;;;;;11.07;2.80;;;;;;;;;;5042208;28;20030;-64
2024/02/06 05:24:57;;;;;;;14.25;3.72;;;;;;;;;;5036483;28;20021;-64
2024/02/06 05:27:27;;;;;;;7.78;2.97;;;;;;;;;;5038724;28;20033;-64
2024/02/06 05:29:53;;;;;;;9.48;3.17;;;;;;;;;;5049398;28;20047;-64
2024/02/06 05:32:20;;;;;;;4.97;2.65;;;;;;;;;;5032297;28;20127;-64
2024/02/06 05:34:46;;;;;;;9.02;2.80;;;;;;;;;;5044651;28;20026;-64
2024/02/06 05:37:12;;;;;;;14.93;3.28;;;;;;;;;;5045833;28;20488;-64
2024/02/06 05:39:38;;;;;;;8.38;2.70;;;;;;;;;;5048642;28;20529;-64
2024/02/06 05:42:04;;;;;;;12.38;3.60;;;;;;;;;;5037589;28;20507;-64
2024/02/06 05:44:30;;;;;;;4.57;2.65;;;;;;;;;;5032303;28;20115;-65
2024/02/06 05:46:57;;;;;;;6.05;2.83;;;;;;;;;;5024649;28;20021;-64
2024/02/06 05:49:24;;;;;;;8.52;3.35;;;;;;;;;;5031844;28;20116;-67
2024/02/06 05:51:50;;;;;;;8.13;2.92;;;;;;;;;;5034243;28;20083;-64
2024/02/06 05:54:16;;;;;;;5.20;2.58;;;;;;;;;;5047329;28;20481;-69
2024/02/06 05:56:42;;;;;;;7.47;2.78;;;;;;;;;;5050369;28;20040;-65
2024/02/06 05:59:09;;;;;;;12.25;3.58;;;;;;;;;;5046208;28;20362;-65
2024/02/06 06:01:35;;;;;;;7.80;3.60;;;;;;;;;;5038603;28;20056;-65
2024/02/06 06:04:01;;;;;;;8.20;3.45;;;;;;;;;;5040964;28;20102;-64
2024/02/06 06:06:30;;;;;;;8.55;2.95;;;;;;;;;;5033083;28;20031;-65
2024/02/06 06:08:56;;;;;;;7.00;2.78;;;;;;;;;;5010648;28;20502;-64
2024/02/06 06:11:22;;;;;;;14.25;3.15;;;;;;;;;;5024020;28;20056;-64
2024/02/06 06:13:49;;;;;;;8.40;3.17;;;;;;;;;;5022704;28;20528;-64
2024/02/06 06:16:15;;;;;;;8.80;3.45;;;;;;;;;;5023983;28;20021;-65
2024/02/06 06:18:41;;;;;;;10.05;3.00;;;;;;;;;;5009209;28;20092;-66
2024/02/06 06:21:08;;;;;;;11.07;3.13;;;;;;;;;;5029333;28;20084;-64
2024/02/06 06:23:34;;;;;;;6.07;2.67;;;;;;;;;;5019090;28;20493;-64
2024/02/06 06:26:00;;;;;;;5.00;3.58;;;;;;;;;;5023892;28;20560;-65
2024/02/06 06:28:26;;;;;;;6.25;3.00;;;;;;;;;;5016478;28;20025;-65
2024/02/06 06:30:53;;;;;;;5.75;2.20;;;;;;;;;;5022237;28;20034;-65
2024/02/06 06:33:19;;;;;;;4.82;2.33;;;;;;;;;;5004536;28;20591;-65
2024/02/06 06:35:45;;;;;;;3.75;2.53;;;;;;;;;;5029742;28;20343;-65
2024/02/06 06:38:12;;;;;;;8.00;2.70;;;;;;;;;;5019756;28;20037;-66
2024/02/06 06:40:38;;;;;;;12.35;3.05;;;;;;;;;;5002199;28;20186;-66
2024/02/06 06:43:04;;;;;;;12.18;2.78;;;;;;;;;;5003364;28;20033;-66
2024/02/06 06:45:31;;;;;;;4.18;2.70;;;;;;;;;;5007990;28;20037;-69
2024/02/06 06:47:57;;;;;;;10.68;2.92;;;;;;;;;;5017461;28;20078;-66
2024/02/06 06:50:23;;;;;;;6.82;3.92;;;;;;;;;;5000649;28;20250;-66
2024/02/06 06:52:50;;;;;;;12.63;2.63;;;;;;;;;;5027305;28;20485;-76
2024/02/06 06:55:16;;;;;;;6.45;2.88;;;;;;;;;;5030608;28;20022;-76
2024/02/06 06:57:42;;;;;;;3.97;2.25;;;;;;;;;;5001255;28;20037;-76
2024/02/06 07:00:12;;;;;;;5.30;2.53;;;;;;;;;;4996935;28;20152;-75
2024/02/06 07:02:43;;;;;;;6.78;2.47;;;;;;;;;;5007935;28;20308;-76
2024/02/06 07:05:12;;;;;;;8.45;2.63;;;;;;;;;;5024175;28;20053;-76
2024/02/06 07:07:38;;;;;;;7.03;2.40;;;;;;;;;;5018758;28;20048;-77
2024/02/06 07:10:06;;;;;;;4.60;2.35;;;;;;;;;;5058770;28;20041;-76
2024/02/06 07:12:33;;;;;;;4.82;2.35;;;;;;;;;;5023754;28;20044;-76
2024/02/06 07:15:00;;;;;;;5.97;3.05;;;;;;;;;;5035562;28;20029;-77
2024/02/06 07:17:26;;;;;;;13.93;2.95;;;;;;;;;;5039336;28;20026;-77
2024/02/06 07:19:52;;;;;;;7.07;2.13;;;;;;;;;;5043606;28;20384;-76
2024/02/06 07:22:18;;;;;;;3.47;1.90;;;;;;;;;;5039697;28;20018;-76
2024/02/06 07:24:47;;;;;;;3.20;2.22;;;;;;;;;;5044174;28;20057;-76
2024/02/06 07:27:13;;;;;;;5.97;3.15;;;;;;;;;;5041196;28;20079;-76
2024/02/06 07:29:44;;;;;;;5.20;2.05;;;;;;;;;;5044825;28;20033;-76
2024/02/06 07:32:11;;;;;;;3.15;2.55;;;;;;;;;;5033052;28;20032;-67
2024/02/06 07:34:37;;;;;;;3.05;2.13;;;;;;;;;;5049842;28;20385;-68
2024/02/06 07:37:04;;;;;;;7.70;3.28;;;;;;;;;;5011458;28;20032;-73
2024/02/06 07:39:30;;;;;;;7.10;2.10;;;;;;;;;;5040438;28;20770;-69
2024/02/06 07:41:57;;;;;;;4.15;2.75;;;;;;;;;;5034243;28;20473;-67
2024/02/06 07:44:35;;;;;;;3.63;2.38;;;;;;;;;;5034172;28;20082;-67
2024/02/06 07:47:02;;;;;;;7.53;2.38;;;;;;;;;;5014012;28;20030;-67
2024/02/06 07:49:28;;;;;;;2.97;1.83;;;;;;;;;;5024502;28;20106;-66
2024/02/06 07:51:54;;;;;;;6.63;2.40;;;;;;;;;;5035712;28;20061;-69
2024/02/06 07:54:20;;;;;;;2.15;1.95;;;;;;;;;;5033324;28;20534;-67
2024/02/06 07:56:47;;;;;;;6.03;1.95;;;;;;;;;;5046185;28;20033;-68
2024/02/06 07:59:15;;;;;;;7.47;2.85;;;;;;;;;;5034347;28;20025;-67
2024/02/06 08:01:41;;;;;;;5.22;2.55;;;;;;;;;;5014161;28;20035;-66
2024/02/06 08:04:11;;;;;;;3.40;2.00;;;;;;;;;;5019693;28;20036;-67
2024/02/06 08:06:37;;;;;;;3.63;2.15;;;;;;;;;;5042577;28;20044;-67
2024/02/06 08:09:03;;;;;;;2.50;1.70;;;;;;;;;;5030796;28;20096;-68
2024/02/06 08:11:30;;;;;;;5.57;2.03;;;;;;;;;;5027871;28;20287;-66
2024/02/06 08:13:56;;;;;;;4.47;2.10;;;;;;;;;;5032351;28;20041;-66
2024/02/06 08:16:22;;;;;;;2.83;2.35;;;;;;;;;;5035222;28;20052;-68
2024/02/06 08:18:48;;;;;;;2.30;1.92;;;;;;;;;;5013293;28;20029;-67
2024/02/06 08:21:14;;;;;;;4.85;1.90;;;;;;;;;;5039029;28;20025;-65
2024/02/06 08:23:41;;;;;;;2.50;2.00;;;;;;;;;;5030514;28;20108;-63
2024/02/06 08:26:08;;;;;;;3.72;2.03;;;;;;;;;;5033119;28;20029;-75
2024/02/06 08:28:34;;;;;;;5.03;1.95;;;;;;;;;;5046713;28;20084;-75
2024/02/06 08:31:00;;;;;;;4.70;2.47;;;;;;;;;;5037309;28;20056;-76
2024/02/06 08:33:27;;;;;;;6.10;2.15;;;;;;;;;;5027172;28;20785;-73
2024/02/06 08:35:53;;;;;;;4.43;1.45;;;;;;;;;;5042836;28;20090;-74
2024/02/06 08:38:20;;;;;;;2.35;1.40;;;;;;;;;;5040506;28;20021;-75
2024/02/06 08:40:47;;;;;;;1.63;1.20;;;;;;;;;;5039179;28;20025;-74
2024/02/06 08:43:13;;;;;;;1.00;1.00;;;;;;;;;;5019020;28;20036;-74
2024/02/06 08:45:40;;;;;;;1.20;1.15;;;;;;;;;;5043455;28;20025;-75
2024/02/06 08:48:09;;;;;;;1.10;1.10;;;;;;;;;;5037921;28;20032;-75
2024/02/06 08:50:35;;;;;;;1.20;1.10;;;;;;;;;;5045259;28;20029;-76
2024/02/06 08:53:02;;;;;;;1.02;1.02;;;;;;;;;;5037000;28;20262;-75
2024/02/06 08:55:29;;;;;;;0.95;0.95;;;;;;;;;;5048898;28;20066;-77
2024/02/06 08:57:55;;;;;;;1.00;1.00;;;;;;;;;;5031844;28;20025;-77
2024/02/06 09:00:21;;;;;;;1.20;1.17;;;;;;;;;;5041876;28;20026;-77
2024/02/06 09:02:47;;;;;;;2.60;1.30;;;;;;;;;;5028218;28;20033;-77
2024/02/06 09:05:14;;;;;;;1.08;1.08;;;;;;;;;;5030432;28;20040;-67
2024/02/06 09:07:40;;;;;;;1.10;1.10;;;;;;;;;;5043298;28;20044;-66
2024/02/06 09:10:07;;;;;;;1.10;1.10;;;;;;;;;;5042375;28;20609;-66
2024/02/06 09:12:36;;;;;;;1.15;1.15;;;;;;;;;;5039892;28;20076;-67
2024/02/06 09:15:02;;;;;;;1.10;1.10;;;;;;;;;;5021453;28;20057;-68
2024/02/06 09:17:31;;;;;;;2.35;1.35;;;;;;;;;;5028675;28;20143;-68
2024/02/06 09:19:58;;;;;;;1.10;1.10;;;;;;;;;;5019964;28;20025;-66
2024/02/06 09:22:24;;;;;;;1.33;1.25;;;;;;;;;;5026738;28;20013;-66
2024/02/06 09:24:50;;;;;;;1.60;1.50;;;;;;;;;;5016791;28;20048;-67
2024/02/06 09:27:17;;;;;;;1.95;1.80;;;;;;;;;;5030620;28;20396;-66
2024/02/06 09:29:44;;;;;;;1.30;1.30;;;;;;;;;;5045088;28;20032;-70
2024/02/06 09:32:10;;;;;;;1.10;1.10;;;;;;;;;;5026492;28;20036;-66
2024/02/06 09:34:36;;;;;;;1.10;1.10;;;;;;;;;;5039447;28;20456;-67
2024/02/06 09:37:03;;;;;;;1.00;1.00;;;;;;;;;;5024755;28;20033;-66
2024/02/06 09:39:29;;;;;;;3.47;1.50;;;;;;;;;;5025083;28;20427;-67
2024/02/06 09:42:01;;;;;;;1.40;1.30;;;;;;;;;;5034043;28;20032;-68
2024/02/06 09:44:28;;;;;;;2.28;1.13;;;;;;;;;;5035463;28;20462;-73
2024/02/06 09:46:56;;;;;;;1.13;1.13;;;;;;;;;;5028338;28;20021;-66
2024/02/06 09:49:22;;;;;;;1.73;1.10;;;;;;;;;;5032581;28;20524;-67
2024/02/06 09:51:48;;;;;;;1.00;1.00;;;;;;;;;;5025736;28;20068;-67
2024/02/06 09:54:16;;;;;;;2.38;1.27;;;;;;;;;;5021068;28;20030;-67
2024/02/06 09:56:45;;;;;;;1.15;1.08;;;;;;;;;;5040195;28;20025;-67
2024/02/06 09:59:11;;;;;;;1.20;1.20;;;;;;;;;;5039824;28;20472;-67
2024/02/06 10:01:41;;;;;;;3.58;1.38;;;;;;;;;;5036039;28;20163;-67
2024/02/06 10:04:09;;;;;;;1.20;1.20;;;;;;;;;;5033626;28;20111;-67
2024/02/06 10:06:37;;;;;;;1.10;1.10;;;;;;;;;;5033149;28;20037;-67
2024/02/06 10:09:04;;;;;;;3.95;1.55;;;;;;;;;;5015712;28;20041;-67
2024/02/06 10:11:34;;;;;;;1.30;1.20;;;;;;;;;;5020894;28;20535;-67
2024/02/06 10:14:03;;;;;;;1.60;1.50;;;;;;;;;;5031576;28;20033;-67
2024/02/06 10:16:29;;;;;;;1.63;1.50;;;;;;;;;;5019084;28;20089;-67
2024/02/06 10:18:56;;;;;;;3.15;1.63;;;;;;;;;;5037091;28;20079;-67
2024/02/06 10:21:22;;;;;;;1.30;1.20;;;;;;;;;;5020354;28;20077;-67
2024/02/06 10:23:49;;;;;;;1.65;1.42;;;;;;;;;;5023478;28;20028;-68
2024/02/06 10:26:19;;;;;;;9.18;1.98;;;;;;;;;;5034695;28;20033;-67
2024/02/06 10:28:46;;;;;;;2.00;1.70;;;;;;;;;;5038211;28;20491;-67
2024/02/06 10:31:12;;;;;;;5.53;1.70;;;;;;;;;;5042709;28;20022;-68
2024/02/06 10:33:39;;;;;;;1.27;1.25;;;;;;;;;;5043357;28;20034;-69
2024/02/06 10:36:05;;;;;;;5.78;2.22;;;;;;;;;;5043919;28;20082;-68
2024/02/06 10:38:32;;;;;;;1.85;1.75;;;;;;;;;;5032921;28;20021;-67
2024/02/06 10:40:58;;;;;;;4.78;1.70;;;;;;;;;;5048710;28;20029;-67
2024/02/06 10:43:29;;;;;;;1.40;1.30;;;;;;;;;;5016529;28;20075;-69
2024/02/06 10:45:58;;;;;;;2.50;1.50;;;;;;;;;;5031274;28;20036;-67
2024/02/06 10:48:25;;;;;;;5.93;1.58;;;;;;;;;;5031703;28;20057;-67
2024/02/06 10:51:01;;;;;;;3.85;2.17;;;;;;;;;;5049614;28;20495;-67
2024/02/06 10:53:27;;;;;;;2.20;1.55;;;;;;;;;;5020910;28;20056;-67
2024/02/06 10:56:05;;;;;;;6.70;1.50;;;;;;;;;;5042159;28;20099;-68
2024/02/06 10:58:39;;;;;;;2.53;1.55;;;;;;;;;;5028891;28;20029;-67
2024/02/06 11:01:09;;;;;;;2.75;1.92;;;;;;;;;;5045919;28;20021;-69
2024/02/06 11:03:39;;;;;;;4.60;1.80;;;;;;;;;;5039359;28;20036;-67
2024/02/06 11:06:10;;;;;;;4.30;1.50;;;;;;;;;;5025724;28;20059;-67
2024/02/06 11:08:39;;;;;;;6.90;1.55;;;;;;;;;;5030466;28;20140;-67
2024/02/06 11:11:07;;;;;;;2.67;1.60;;;;;;;;;;5036777;28;20112;-69
2024/02/06 11:13:50;;;;;;;6.50;2.22;;;;;;;;;;5036227;28;20033;-70
2024/02/06 11:16:19;;;;;;;1.73;1.33;;;;;;;;;;5045872;28;20397;-67
2024/02/06 11:18:48;;;;;;;5.88;1.63;;;;;;;;;;5036853;28;20252;-69
2024/02/06 11:21:15;;;;;;;6.45;2.00;;;;;;;;;;5030002;28;20021;-68
2024/02/06 11:23:42;;;;;;;6.70;1.92;;;;;;;;;;5038250;28;20041;-67
2024/02/06 11:26:11;;;;;;;4.78;1.50;;;;;;;;;;5021744;28;20030;-67
2024/02/06 11:28:37;;;;;;;1.63;1.52;;;;;;;;;;5034955;28;20079;-67
2024/02/06 11:31:04;;;;;;;4.93;1.65;;;;;;;;;;5042937;28;20084;-67
2024/02/06 11:33:31;;;;;;;1.20;1.20;;;;;;;;;;5047469;28;20060;-68
2024/02/06 11:36:19;;;;;;;7.95;1.40;;;;;;;;;;5040106;28;20072;-67
2024/02/06 11:38:45;;;;;;;8.43;1.67;;;;;;;;;;5048441;28;20043;-73
2024/02/06 11:41:19;;;;;;;10.07;2.03;;;;;;;;;;5023630;28;20540;-67
2024/02/06 11:43:47;;;;;;;1.95;1.40;;;;;;;;;;5040925;28;20037;-67
2024/02/06 11:46:13;;;;;;;1.85;1.33;;;;;;;;;;5049285;28;20052;-67
2024/02/06 11:48:44;;;;;;;4.65;2.08;;;;;;;;;;5027118;28;20056;-68
2024/02/06 11:51:11;;;;;;;2.88;1.40;;;;;;;;;;5017403;28;20492;-67
2024/02/06 11:53:37;;;;;;;2.63;1.58;;;;;;;;;;5046240;28;20087;-66
2024/02/06 11:56:04;;;;;;;2.85;1.40;;;;;;;;;;5047311;28;20025;-67
2024/02/06 11:58:36;;;;;;;7.60;1.77;;;;;;;;;;5041530;28;20049;-67
2024/02/06 12:01:06;;;;;;;8.38;2.15;;;;;;;;;;5028755;28;20499;-68
2024/02/06 12:03:38;;;;;;;1.95;1.52;;;;;;;;;;5032834;28;20052;-68
2024/02/06 12:06:07;;;;;;;5.63;1.65;;;;;;;;;;5024325;28;20446;-66
2024/02/06 12:08:34;;;;;;;3.85;1.35;;;;;;;;;;5048063;28;20052;-67
2024/02/06 12:11:04;;;;;;;3.17;1.45;;;;;;;;;;5031262;28;20040;-67
2024/02/06 12:13:32;;;;;;;6.57;1.60;;;;;;;;;;5042849;28;20041;-69
2024/02/06 12:16:02;;;;;;;5.43;1.65;;;;;;;;;;5039638;28;20033;-68
2024/02/06 12:18:29;;;;;;;11.57;2.13;;;;;;;;;;5021860;28;20041;-68
2024/02/06 12:20:55;;;;;;;5.50;1.40;;;;;;;;;;5033694;28;20460;-67
2024/02/06 12:23:22;;;;;;;4.40;1.90;;;;;;;;;;5046941;28;20060;-68
2024/02/06 12:25:49;;;;;;;4.72;1.30;;;;;;;;;;5043888;28;20029;-67
2024/02/06 12:28:29;;;;;;;;;;;;;;;;;;;;;
2024/02/06 12:31:00;;;;;;;11.10;2.28;;;;;;;;;;5034906;28;20104;-67
2024/02/06 12:33:26;;;;;;;7.00;1.77;;;;;;;;;;5044902;28;20036;-67
2024/02/06 12:35:54;;;;;;;2.78;1.95;;;;;;;;;;5038638;28;20020;-68
2024/02/06 12:38:21;;;;;;;5.85;3.35;;;;;;;;;;5025665;28;20030;-70
2024/02/06 12:40:51;;;;;;;13.25;3.05;;;;;;;;;;5035087;28;20032;-68
2024/02/06 12:43:19;;;;;;;7.97;2.20;;;;;;;;;;5028499;28;20025;-67
2024/02/06 12:45:45;;;;;;;1.85;1.45;;;;;;;;;;5038067;28;20010;-68
2024/02/06 12:48:12;;;;;;;6.43;2.15;;;;;;;;;;5031519;28;20025;-67
2024/02/06 12:50:38;;;;;;;4.75;1.98;;;;;;;;;;5046940;28;20640;-67
2024/02/06 12:53:04;;;;;;;4.60;1.33;;;;;;;;;;5014992;28;20036;-67
2024/02/06 12:55:39;;;;;;;4.22;2.00;;;;;;;;;;5040117;28;20036;-68
2024/02/06 12:58:06;;;;;;;;;;;;;;;;;;5041637;28;20092;-68
2024/02/06 13:00:34;;;;;;;1.98;1.77;;;;;;;;;;5037981;28;19916;-68
2024/02/06 13:03:05;;;;;;;4.90;2.00;;;;;;;;;;5038012;28;20021;-67
2024/02/06 13:05:34;;;;;;;2.72;1.40;;;;;;;;;;5038626;28;20285;-67
2024/02/06 13:08:05;;;;;;;5.00;1.75;;;;;;;;;;5024703;28;20136;-67
2024/02/06 13:10:33;;;;;;;1.92;1.73;;;;;;;;;;5027116;28;20032;-68
2024/02/06 13:13:03;;;;;;;5.03;1.75;;;;;;;;;;5040633;28;20052;-68
2024/02/06 13:15:44;;;;;;;3.25;1.80;;;;;;;;;;5029829;28;20025;-68
2024/02/06 13:18:15;;;;;;;1.70;1.60;;;;;;;;;;5045273;28;20096;-68
2024/02/06 13:20:42;;;;;;;7.85;2.25;;;;;;;;;;5024750;28;20026;-68
2024/02/06 13:23:14;;;;;;;1.67;1.55;;;;;;;;;;5019349;28;20424;-68
2024/02/06 13:25:40;;;;;;;1.42;1.40;;;;;;;;;;5034605;28;20029;-70
2024/02/06 13:28:07;;;;;;;4.72;2.13;;;;;;;;;;5045348;28;20021;-66
2024/02/06 13:30:34;;;;;;;5.22;1.48;;;;;;;;;;5045717;28;20017;-68
2024/02/06 13:33:00;;;;;;;7.97;2.20;;;;;;;;;;5043208;28;20215;-68
2024/02/06 13:35:26;;;;;;;2.25;1.73;;;;;;;;;;5048227;28;20029;-69
2024/02/06 13:37:53;;;;;;;6.32;1.50;;;;;;;;;;5050457;28;20029;-68
2024/02/06 13:40:19;;;;;;;7.60;1.67;;;;;;;;;;5047618;28;20096;-67
2024/02/06 13:42:46;;;;;;;5.78;2.00;;;;;;;;;;5035986;28;20029;-70
2024/02/06 13:45:12;;;;;;;4.20;2.38;;;;;;;;;;5038630;28;20341;-67
2024/02/06 13:47:38;;;;;;;3.45;1.50;;;;;;;;;;5051086;28;20029;-68
2024/02/06 13:50:05;;;;;;;3.97;2.08;;;;;;;;;;5048155;28;20025;-67
2024/02/06 13:52:31;;;;;;;1.83;1.60;;;;;;;;;;5035994;28;20025;-68
2024/02/06 13:54:57;;;;;;;6.57;1.90;;;;;;;;;;5021827;28;20060;-68
2024/02/06 13:57:24;;;;;;;3.10;1.70;;;;;;;;;;5028442;28;20481;-68
2024/02/06 13:59:50;;;;;;;8.25;1.88;;;;;;;;;;5035365;28;20053;-67
2024/02/06 14:02:20;;;;;;;6.85;1.88;;;;;;;;;;5051197;28;20037;-68
2024/02/06 14:04:46;;;;;;;1.95;1.35;;;;;;;;;;5044881;28;21110;-67
2024/02/06 14:07:16;;;;;;;2.28;1.67;;;;;;;;;;5047775;28;20088;-67
2024/02/06 14:09:42;;;;;;;2.70;1.67;;;;;;;;;;5051791;28;20064;-68
2024/02/06 14:12:09;;;;;;;1.90;1.55;;;;;;;;;;5049243;28;20104;-67
2024/02/06 14:14:42;;;;;;;1.92;1.30;;;;;;;;;;5038419;28;20124;-68
2024/02/06 14:17:08;;;;;;;3.90;1.52;;;;;;;;;;5021620;28;20079;-68
2024/02/06 14:19:34;;;;;;;1.27;1.27;;;;;;;;;;5038287;28;20099;-67
2024/02/06 14:22:01;;;;;;;3.45;2.28;;;;;;;;;;5044671;28;20025;-68
2024/02/06 14:24:28;;;;;;;3.85;2.08;;;;;;;;;;5040872;28;20044;-68
2024/02/06 14:26:57;;;;;;;2.70;1.83;;;;;;;;;;5029786;28;20029;-68
2024/02/06 14:29:24;;;;;;;1.50;1.35;;;;;;;;;;5022927;28;20473;-70
2024/02/06 14:31:50;;;;;;;2.38;2.17;;;;;;;;;;5039576;28;20507;-69
2024/02/06 14:34:16;;;;;;;3.03;1.98;;;;;;;;;;5035154;28;20085;-68
2024/02/06 14:36:43;;;;;;;4.88;1.85;;;;;;;;;;5041710;28;20085;-67
2024/02/06 14:39:09;;;;;;;10.30;2.45;;;;;;;;;;5044135;28;20026;-68
2024/02/06 14:41:36;;;;;;;7.05;1.73;;;;;;;;;;5042249;28;20057;-67